< < Back
Terminal Aerodrome Forecast


Current Version              Previous Versions:   1  2  3  4  5  6  7  8  9  

Terminal Aerodrome Forecast

675
FTUS42 KJAX 282205 AAB
TAFJAX
TAF AMD
KJAX 282205Z 2822/0118 03015KT 3SM -DZ BR OVC005
      TEMPO 2822/0102 2SM -RA BR
     FM010200 03010G15KT 3SM -DZ BR OVC004
      TEMPO 0102/0106 1SM -RA BR OVC001
     FM010600 03006KT 3SM -DZ BR OVC003
      TEMPO 0106/0110 1/2SM -RA FG OVC001
     FM011000 03005KT 2SM -DZ BR OVC002
      TEMPO 0110/0114 1/4SM -RA FG OVC001
     FM011400 06008G12KT 5SM -RA BR OVC004 PROB30 0114/0118 3SM RA
      BR OVC002=

Latest METAR

751
SAUS80 KWBC 282300 CCA
MTRJAX
METAR KJAX 282256Z 03015G21KT 3SM BR OVC006 09/09 A3043 RMK AO2 RAE05
SLP306 P0000 T00890089


USA.gov is the U.S. government's official web portal to all federal, state and local government web resources and services.